Idaho Falls Regional Airport Idaho Falls US
ICAO: KIDA
IATA: IDA
Category: Medium
Scheduled Services: Yes

Elevation: 4744 ft
TransAlt. 18000 ft.

Airport Communications:
ASOS:135.325
ATIS:135.325
SALT LAKE CITY CNTR:128.35
CTAF:118.5
GND:121.7
BOISE RDO:122.55
TWR:118.5
UNICOM:122.95

KIDA Zoom In..

If you have problems with the map follow the link
https://www.worldairports.se/pages/airport.php?
ICAO=KIDA

Runways:

(A) RW 02 length 9002 ft width 150 ft
---- / hdg 23

(B) RW 17 length 4051 ft width 75 ft
---- / hdg 167

(C) RW 20 length 9002 ft width 150 ft
ILS 111.10 / hdg 203

(D) RW 35 length 4051 ft width 75 ft
---- / hdg 347

Location; KIDA
Day. 23 / Time. 07.53 Zulu
* Altimeter: 30.06
* Temperature: 01° c. 33.8°f.
* Wind from: 360° Speed 05 kn.
Dewpoint: -01° c.
Visibility: 10 Statute Miles.
Clouds: Clear (automated report).

KIDA 230753Z AUTO 36005KT 10SM CLR 01/M01 A3006 RMK AO2 SLP171 T00111006


Wind From 360°
Speed 05 kn.

 
 
jpsmedia.com for Web Design worldairports.se 2018   terms of use